sensor_id;sensor_type;location;lat;lon;timestamp;P1;durP1;ratioP1;P2;durP2;ratioP2
59062;SDS011;44851;45.648;9.004;2022-10-16T00:00:39;29.30;;;19.40;;
59062;SDS011;44851;45.648;9.004;2022-10-16T00:03:06;25.60;;;19.53;;
59062;SDS011;44851;45.648;9.004;2022-10-16T00:05:32;28.50;;;19.47;;
59062;SDS011;44851;45.648;9.004;2022-10-16T00:08:02;28.47;;;18.67;;
59062;SDS011;44851;45.648;9.004;2022-10-16T00:10:27;23.33;;;18.43;;
59062;SDS011;44851;45.648;9.004;2022-10-16T00:12:53;26.30;;;18.00;;
59062;SDS011;44851;45.648;9.004;2022-10-16T00:15:19;26.73;;;19.37;;
59062;SDS011;44851;45.648;9.004;2022-10-16T00:17:44;27.07;;;19.40;;
59062;SDS011;44851;45.648;9.004;2022-10-16T00:20:09;29.83;;;19.67;;
59062;SDS011;44851;45.648;9.004;2022-10-16T00:22:34;26.10;;;19.43;;
59062;SDS011;44851;45.648;9.004;2022-10-16T00:25:00;29.13;;;19.53;;
59062;SDS011;44851;45.648;9.004;2022-10-16T00:27:25;29.67;;;20.47;;
59062;SDS011;44851;45.648;9.004;2022-10-16T00:29:51;28.40;;;20.10;;
59062;SDS011;44851;45.648;9.004;2022-10-16T00:32:17;27.17;;;19.40;;
59062;SDS011;44851;45.648;9.004;2022-10-16T00:34:43;29.90;;;19.50;;
59062;SDS011;44851;45.648;9.004;2022-10-16T00:37:09;24.73;;;18.83;;
59062;SDS011;44851;45.648;9.004;2022-10-16T00:39:34;29.47;;;18.47;;
59062;SDS011;44851;45.648;9.004;2022-10-16T00:42:00;34.20;;;20.07;;
59062;SDS011;44851;45.648;9.004;2022-10-16T00:47:15;27.83;;;19.20;;
59062;SDS011;44851;45.648;9.004;2022-10-16T00:49:47;26.97;;;20.03;;
59062;SDS011;44851;45.648;9.004;2022-10-16T00:52:15;27.03;;;20.37;;
59062;SDS011;44851;45.648;9.004;2022-10-16T00:54:41;28.27;;;19.80;;
59062;SDS011;44851;45.648;9.004;2022-10-16T00:57:07;25.00;;;18.60;;
59062;SDS011;44851;45.648;9.004;2022-10-16T00:59:34;26.77;;;18.83;;
59062;SDS011;44851;45.648;9.004;2022-10-16T01:02:03;26.80;;;19.83;;
59062;SDS011;44851;45.648;9.004;2022-10-16T01:04:34;26.10;;;18.57;;
59062;SDS011;44851;45.648;9.004;2022-10-16T01:10:07;28.67;;;19.33;;
59062;SDS011;44851;45.648;9.004;2022-10-16T01:12:50;29.07;;;19.77;;
59062;SDS011;44851;45.648;9.004;2022-10-16T01:18:00;28.73;;;20.00;;
59062;SDS011;44851;45.648;9.004;2022-10-16T01:20:34;25.63;;;19.77;;
59062;SDS011;44851;45.648;9.004;2022-10-16T01:23:20;27.93;;;20.13;;
59062;SDS011;44851;45.648;9.004;2022-10-16T01:28:25;25.57;;;19.17;;
59062;SDS011;44851;45.648;9.004;2022-10-16T01:30:55;29.57;;;19.80;;
59062;SDS011;44851;45.648;9.004;2022-10-16T01:33:24;24.53;;;17.77;;
59062;SDS011;44851;45.648;9.004;2022-10-16T01:35:57;26.93;;;18.17;;
59062;SDS011;44851;45.648;9.004;2022-10-16T01:38:37;29.80;;;17.67;;
59062;SDS011;44851;45.648;9.004;2022-10-16T01:41:06;25.83;;;17.53;;
59062;SDS011;44851;45.648;9.004;2022-10-16T01:43:40;22.53;;;16.33;;
59062;SDS011;44851;45.648;9.004;2022-10-16T01:46:11;26.03;;;17.40;;
59062;SDS011;44851;45.648;9.004;2022-10-16T01:48:39;26.13;;;17.60;;
59062;SDS011;44851;45.648;9.004;2022-10-16T01:51:06;24.57;;;18.60;;
59062;SDS011;44851;45.648;9.004;2022-10-16T01:53:35;23.70;;;17.47;;
59062;SDS011;44851;45.648;9.004;2022-10-16T01:56:02;22.93;;;16.57;;
59062;SDS011;44851;45.648;9.004;2022-10-16T01:58:33;25.03;;;17.53;;
59062;SDS011;44851;45.648;9.004;2022-10-16T02:01:03;24.77;;;17.47;;
59062;SDS011;44851;45.648;9.004;2022-10-16T02:03:32;24.23;;;17.27;;
59062;SDS011;44851;45.648;9.004;2022-10-16T02:05:59;24.10;;;17.00;;
59062;SDS011;44851;45.648;9.004;2022-10-16T02:08:25;22.30;;;16.50;;
59062;SDS011;44851;45.648;9.004;2022-10-16T02:10:57;22.47;;;16.23;;
59062;SDS011;44851;45.648;9.004;2022-10-16T02:15:55;24.03;;;17.30;;
59062;SDS011;44851;45.648;9.004;2022-10-16T02:18:20;23.17;;;16.37;;
59062;SDS011;44851;45.648;9.004;2022-10-16T02:20:57;22.80;;;16.43;;
59062;SDS011;44851;45.648;9.004;2022-10-16T02:23:35;28.13;;;18.60;;
59062;SDS011;44851;45.648;9.004;2022-10-16T02:26:03;29.43;;;18.17;;
59062;SDS011;44851;45.648;9.004;2022-10-16T02:28:35;22.57;;;17.47;;
59062;SDS011;44851;45.648;9.004;2022-10-16T02:31:08;23.87;;;17.40;;
59062;SDS011;44851;45.648;9.004;2022-10-16T02:33:36;28.23;;;19.07;;
59062;SDS011;44851;45.648;9.004;2022-10-16T02:36:05;25.43;;;17.90;;
59062;SDS011;44851;45.648;9.004;2022-10-16T02:38:31;25.07;;;17.70;;
59062;SDS011;44851;45.648;9.004;2022-10-16T02:40:57;26.00;;;18.43;;
59062;SDS011;44851;45.648;9.004;2022-10-16T02:43:24;27.43;;;18.30;;
59062;SDS011;44851;45.648;9.004;2022-10-16T02:45:50;24.33;;;18.60;;
59062;SDS011;44851;45.648;9.004;2022-10-16T02:48:16;28.80;;;19.30;;
59062;SDS011;44851;45.648;9.004;2022-10-16T02:50:41;25.77;;;18.00;;
59062;SDS011;44851;45.648;9.004;2022-10-16T02:53:06;24.37;;;18.03;;
59062;SDS011;44851;45.648;9.004;2022-10-16T02:55:32;25.27;;;18.27;;
59062;SDS011;44851;45.648;9.004;2022-10-16T02:57:57;22.87;;;16.47;;
59062;SDS011;44851;45.648;9.004;2022-10-16T03:00:22;24.00;;;18.00;;
59062;SDS011;44851;45.648;9.004;2022-10-16T03:02:48;26.03;;;16.53;;
59062;SDS011;44851;45.648;9.004;2022-10-16T03:05:13;24.70;;;18.23;;
59062;SDS011;44851;45.648;9.004;2022-10-16T03:07:39;26.93;;;18.00;;
59062;SDS011;44851;45.648;9.004;2022-10-16T03:10:05;24.10;;;17.90;;
59062;SDS011;44851;45.648;9.004;2022-10-16T03:12:31;25.50;;;18.20;;
59062;SDS011;44851;45.648;9.004;2022-10-16T03:14:56;26.10;;;18.13;;
59062;SDS011;44851;45.648;9.004;2022-10-16T03:17:22;25.90;;;17.57;;
59062;SDS011;44851;45.648;9.004;2022-10-16T03:19:47;21.63;;;16.53;;
59062;SDS011;44851;45.648;9.004;2022-10-16T03:22:13;25.37;;;17.87;;
59062;SDS011;44851;45.648;9.004;2022-10-16T03:24:38;23.90;;;17.00;;
59062;SDS011;44851;45.648;9.004;2022-10-16T03:27:03;22.93;;;15.23;;
59062;SDS011;44851;45.648;9.004;2022-10-16T03:29:29;23.53;;;16.97;;
59062;SDS011;44851;45.648;9.004;2022-10-16T03:31:55;23.43;;;16.20;;
59062;SDS011;44851;45.648;9.004;2022-10-16T03:34:21;24.23;;;16.60;;
59062;SDS011;44851;45.648;9.004;2022-10-16T03:36:46;24.73;;;17.20;;
59062;SDS011;44851;45.648;9.004;2022-10-16T03:39:12;23.10;;;17.07;;
59062;SDS011;44851;45.648;9.004;2022-10-16T03:41:37;23.23;;;16.73;;
59062;SDS011;44851;45.648;9.004;2022-10-16T03:44:02;24.40;;;16.27;;
59062;SDS011;44851;45.648;9.004;2022-10-16T03:46:28;21.57;;;15.73;;
59062;SDS011;44851;45.648;9.004;2022-10-16T03:48:54;25.70;;;18.10;;
59062;SDS011;44851;45.648;9.004;2022-10-16T03:51:19;23.50;;;16.57;;
59062;SDS011;44851;45.648;9.004;2022-10-16T03:53:45;24.30;;;17.10;;
59062;SDS011;44851;45.648;9.004;2022-10-16T03:56:10;23.27;;;16.47;;
59062;SDS011;44851;45.648;9.004;2022-10-16T03:58:35;21.57;;;16.40;;
59062;SDS011;44851;45.648;9.004;2022-10-16T04:01:01;23.60;;;16.10;;
59062;SDS011;44851;45.648;9.004;2022-10-16T04:03:26;22.13;;;16.73;;
59062;SDS011;44851;45.648;9.004;2022-10-16T04:05:52;22.43;;;15.93;;
59062;SDS011;44851;45.648;9.004;2022-10-16T04:08:17;22.37;;;16.63;;
59062;SDS011;44851;45.648;9.004;2022-10-16T04:10:43;22.13;;;16.00;;
59062;SDS011;44851;45.648;9.004;2022-10-16T04:13:08;20.57;;;15.60;;
59062;SDS011;44851;45.648;9.004;2022-10-16T04:15:34;20.77;;;16.10;;
59062;SDS011;44851;45.648;9.004;2022-10-16T04:18:00;22.90;;;16.63;;
59062;SDS011;44851;45.648;9.004;2022-10-16T04:20:25;21.40;;;17.37;;
59062;SDS011;44851;45.648;9.004;2022-10-16T04:22:50;21.00;;;14.57;;
59062;SDS011;44851;45.648;9.004;2022-10-16T04:25:16;22.30;;;16.17;;
59062;SDS011;44851;45.648;9.004;2022-10-16T04:27:41;23.47;;;16.03;;
59062;SDS011;44851;45.648;9.004;2022-10-16T04:30:06;25.47;;;16.93;;
59062;SDS011;44851;45.648;9.004;2022-10-16T04:32:32;22.20;;;15.70;;
59062;SDS011;44851;45.648;9.004;2022-10-16T04:34:58;22.53;;;16.13;;
59062;SDS011;44851;45.648;9.004;2022-10-16T04:37:26;23.07;;;15.97;;
59062;SDS011;44851;45.648;9.004;2022-10-16T04:39:52;22.57;;;16.47;;
59062;SDS011;44851;45.648;9.004;2022-10-16T04:42:18;22.77;;;16.47;;
59062;SDS011;44851;45.648;9.004;2022-10-16T04:44:44;21.53;;;16.27;;
59062;SDS011;44851;45.648;9.004;2022-10-16T04:47:10;23.77;;;16.73;;
59062;SDS011;44851;45.648;9.004;2022-10-16T04:49:35;21.77;;;16.07;;
59062;SDS011;44851;45.648;9.004;2022-10-16T04:52:01;23.07;;;15.47;;
59062;SDS011;44851;45.648;9.004;2022-10-16T04:54:26;20.23;;;14.70;;
59062;SDS011;44851;45.648;9.004;2022-10-16T04:56:51;24.93;;;17.60;;
59062;SDS011;44851;45.648;9.004;2022-10-16T04:59:17;22.00;;;15.60;;
59062;SDS011;44851;45.648;9.004;2022-10-16T05:01:44;20.37;;;15.50;;
59062;SDS011;44851;45.648;9.004;2022-10-16T05:04:10;21.97;;;16.20;;
59062;SDS011;44851;45.648;9.004;2022-10-16T05:06:36;23.17;;;15.97;;
59062;SDS011;44851;45.648;9.004;2022-10-16T05:09:03;21.20;;;15.20;;
59062;SDS011;44851;45.648;9.004;2022-10-16T05:11:29;23.17;;;15.13;;
59062;SDS011;44851;45.648;9.004;2022-10-16T05:13:55;24.50;;;16.93;;
59062;SDS011;44851;45.648;9.004;2022-10-16T05:16:20;22.80;;;16.13;;
59062;SDS011;44851;45.648;9.004;2022-10-16T05:18:45;23.87;;;15.23;;
59062;SDS011;44851;45.648;9.004;2022-10-16T05:21:11;23.03;;;16.40;;
59062;SDS011;44851;45.648;9.004;2022-10-16T05:23:36;22.23;;;16.73;;
59062;SDS011;44851;45.648;9.004;2022-10-16T05:26:01;22.00;;;15.90;;
59062;SDS011;44851;45.648;9.004;2022-10-16T05:28:27;24.47;;;15.73;;
59062;SDS011;44851;45.648;9.004;2022-10-16T05:30:55;21.87;;;15.13;;
59062;SDS011;44851;45.648;9.004;2022-10-16T05:33:21;22.33;;;16.13;;
59062;SDS011;44851;45.648;9.004;2022-10-16T05:35:47;20.20;;;15.70;;
59062;SDS011;44851;45.648;9.004;2022-10-16T05:38:13;23.07;;;16.13;;
59062;SDS011;44851;45.648;9.004;2022-10-16T05:40:38;23.37;;;15.97;;
59062;SDS011;44851;45.648;9.004;2022-10-16T05:43:04;23.20;;;16.30;;
59062;SDS011;44851;45.648;9.004;2022-10-16T05:45:29;22.63;;;16.07;;
59062;SDS011;44851;45.648;9.004;2022-10-16T05:47:55;22.67;;;16.77;;
59062;SDS011;44851;45.648;9.004;2022-10-16T05:50:20;29.13;;;17.40;;
59062;SDS011;44851;45.648;9.004;2022-10-16T05:52:45;26.60;;;17.00;;
59062;SDS011;44851;45.648;9.004;2022-10-16T05:55:11;23.87;;;17.13;;
59062;SDS011;44851;45.648;9.004;2022-10-16T05:57:36;21.20;;;16.30;;
59062;SDS011;44851;45.648;9.004;2022-10-16T06:00:02;21.30;;;15.03;;
59062;SDS011;44851;45.648;9.004;2022-10-16T06:02:28;19.43;;;14.90;;
59062;SDS011;44851;45.648;9.004;2022-10-16T06:04:54;25.57;;;16.07;;
59062;SDS011;44851;45.648;9.004;2022-10-16T06:07:19;20.47;;;15.53;;
59062;SDS011;44851;45.648;9.004;2022-10-16T06:09:47;21.33;;;15.70;;
59062;SDS011;44851;45.648;9.004;2022-10-16T06:12:14;21.00;;;15.93;;
59062;SDS011;44851;45.648;9.004;2022-10-16T06:14:40;23.43;;;16.50;;
59062;SDS011;44851;45.648;9.004;2022-10-16T06:17:05;22.33;;;16.33;;
59062;SDS011;44851;45.648;9.004;2022-10-16T06:19:31;23.60;;;17.23;;
59062;SDS011;44851;45.648;9.004;2022-10-16T06:21:56;20.03;;;15.47;;
59062;SDS011;44851;45.648;9.004;2022-10-16T06:24:23;22.67;;;15.60;;
59062;SDS011;44851;45.648;9.004;2022-10-16T06:26:48;21.57;;;16.13;;
59062;SDS011;44851;45.648;9.004;2022-10-16T06:29:13;26.07;;;17.17;;
59062;SDS011;44851;45.648;9.004;2022-10-16T06:31:39;21.53;;;15.47;;
59062;SDS011;44851;45.648;9.004;2022-10-16T06:34:04;22.13;;;15.90;;
59062;SDS011;44851;45.648;9.004;2022-10-16T06:36:34;22.00;;;16.13;;
59062;SDS011;44851;45.648;9.004;2022-10-16T06:38:59;24.07;;;16.13;;
59062;SDS011;44851;45.648;9.004;2022-10-16T06:41:25;24.23;;;16.53;;
59062;SDS011;44851;45.648;9.004;2022-10-16T06:43:50;24.30;;;16.17;;
59062;SDS011;44851;45.648;9.004;2022-10-16T06:46:18;20.73;;;15.17;;
59062;SDS011;44851;45.648;9.004;2022-10-16T06:48:45;22.57;;;15.87;;
59062;SDS011;44851;45.648;9.004;2022-10-16T06:51:12;22.30;;;15.47;;
59062;SDS011;44851;45.648;9.004;2022-10-16T06:53:48;21.70;;;15.13;;
59062;SDS011;44851;45.648;9.004;2022-10-16T06:56:19;23.40;;;16.40;;
59062;SDS011;44851;45.648;9.004;2022-10-16T06:58:49;19.10;;;14.77;;
59062;SDS011;44851;45.648;9.004;2022-10-16T07:01:17;22.70;;;15.40;;
59062;SDS011;44851;45.648;9.004;2022-10-16T07:03:44;24.77;;;16.37;;
59062;SDS011;44851;45.648;9.004;2022-10-16T07:06:12;19.47;;;14.77;;
59062;SDS011;44851;45.648;9.004;2022-10-16T07:08:39;22.57;;;16.33;;
59062;SDS011;44851;45.648;9.004;2022-10-16T07:11:08;23.73;;;16.63;;
59062;SDS011;44851;45.648;9.004;2022-10-16T07:13:35;22.43;;;16.47;;
59062;SDS011;44851;45.648;9.004;2022-10-16T07:16:05;21.93;;;16.17;;
59062;SDS011;44851;45.648;9.004;2022-10-16T07:18:31;20.53;;;15.23;;
59062;SDS011;44851;45.648;9.004;2022-10-16T07:21:07;23.17;;;16.77;;
59062;SDS011;44851;45.648;9.004;2022-10-16T07:23:34;24.67;;;16.97;;
59062;SDS011;44851;45.648;9.004;2022-10-16T07:25:59;22.57;;;16.63;;
59062;SDS011;44851;45.648;9.004;2022-10-16T07:28:25;23.97;;;15.73;;
59062;SDS011;44851;45.648;9.004;2022-10-16T07:30:50;22.43;;;15.67;;
59062;SDS011;44851;45.648;9.004;2022-10-16T07:33:16;19.93;;;15.27;;
59062;SDS011;44851;45.648;9.004;2022-10-16T07:35:48;23.90;;;16.47;;
59062;SDS011;44851;45.648;9.004;2022-10-16T07:38:15;20.77;;;15.00;;
59062;SDS011;44851;45.648;9.004;2022-10-16T07:40:40;21.50;;;16.00;;
59062;SDS011;44851;45.648;9.004;2022-10-16T07:43:05;25.07;;;15.67;;
59062;SDS011;44851;45.648;9.004;2022-10-16T07:45:31;23.37;;;15.87;;
59062;SDS011;44851;45.648;9.004;2022-10-16T07:47:56;23.00;;;16.37;;
59062;SDS011;44851;45.648;9.004;2022-10-16T07:50:21;22.00;;;16.13;;
59062;SDS011;44851;45.648;9.004;2022-10-16T07:52:47;23.10;;;16.07;;
59062;SDS011;44851;45.648;9.004;2022-10-16T07:55:12;23.40;;;15.97;;
59062;SDS011;44851;45.648;9.004;2022-10-16T07:57:38;22.33;;;16.37;;
59062;SDS011;44851;45.648;9.004;2022-10-16T08:00:03;22.17;;;16.60;;
59062;SDS011;44851;45.648;9.004;2022-10-16T08:02:29;23.50;;;15.40;;
59062;SDS011;44851;45.648;9.004;2022-10-16T08:04:55;22.27;;;16.77;;
59062;SDS011;44851;45.648;9.004;2022-10-16T08:07:20;25.10;;;17.07;;
59062;SDS011;44851;45.648;9.004;2022-10-16T08:09:48;21.77;;;15.00;;
59062;SDS011;44851;45.648;9.004;2022-10-16T08:12:14;21.10;;;16.37;;
59062;SDS011;44851;45.648;9.004;2022-10-16T08:14:40;21.03;;;15.77;;
59062;SDS011;44851;45.648;9.004;2022-10-16T08:17:05;22.37;;;16.50;;
59062;SDS011;44851;45.648;9.004;2022-10-16T08:19:30;23.63;;;17.60;;
59062;SDS011;44851;45.648;9.004;2022-10-16T08:21:59;20.73;;;16.43;;
59062;SDS011;44851;45.648;9.004;2022-10-16T08:24:24;24.03;;;17.00;;
59062;SDS011;44851;45.648;9.004;2022-10-16T08:26:49;27.13;;;18.10;;
59062;SDS011;44851;45.648;9.004;2022-10-16T08:29:15;27.40;;;18.33;;
59062;SDS011;44851;45.648;9.004;2022-10-16T08:31:40;28.07;;;19.77;;
59062;SDS011;44851;45.648;9.004;2022-10-16T08:34:06;30.67;;;20.73;;
59062;SDS011;44851;45.648;9.004;2022-10-16T08:36:31;31.70;;;21.13;;
59062;SDS011;44851;45.648;9.004;2022-10-16T08:38:56;37.03;;;24.63;;
59062;SDS011;44851;45.648;9.004;2022-10-16T08:44:10;44.97;;;28.97;;
59062;SDS011;44851;45.648;9.004;2022-10-16T08:49:09;45.87;;;28.20;;
59062;SDS011;44851;45.648;9.004;2022-10-16T08:51:38;50.17;;;29.03;;
59062;SDS011;44851;45.648;9.004;2022-10-16T08:54:05;55.30;;;32.07;;
59062;SDS011;44851;45.648;9.004;2022-10-16T08:56:48;53.30;;;32.50;;
59062;SDS011;44851;45.648;9.004;2022-10-16T08:59:13;57.67;;;33.43;;
59062;SDS011;44851;45.648;9.004;2022-10-16T09:01:41;54.37;;;34.07;;
59062;SDS011;44851;45.648;9.004;2022-10-16T09:04:26;59.13;;;35.67;;
59062;SDS011;44851;45.648;9.004;2022-10-16T09:07:21;60.07;;;35.17;;
59062;SDS011;44851;45.648;9.004;2022-10-16T09:18:27;59.73;;;36.37;;
59062;SDS011;44851;45.648;9.004;2022-10-16T09:23:36;57.00;;;34.13;;
59062;SDS011;44851;45.648;9.004;2022-10-16T09:26:02;55.50;;;33.03;;
59062;SDS011;44851;45.648;9.004;2022-10-16T09:28:30;62.50;;;34.97;;
59062;SDS011;44851;45.648;9.004;2022-10-16T09:30:55;57.73;;;35.33;;
59062;SDS011;44851;45.648;9.004;2022-10-16T09:33:23;59.17;;;34.87;;
59062;SDS011;44851;45.648;9.004;2022-10-16T09:35:53;66.33;;;36.33;;
59062;SDS011;44851;45.648;9.004;2022-10-16T09:38:42;57.13;;;35.00;;
59062;SDS011;44851;45.648;9.004;2022-10-16T09:43:57;62.23;;;36.43;;
59062;SDS011;44851;45.648;9.004;2022-10-16T09:48:50;61.80;;;35.60;;
59062;SDS011;44851;45.648;9.004;2022-10-16T09:51:23;67.20;;;36.63;;
59062;SDS011;44851;45.648;9.004;2022-10-16T09:53:58;60.93;;;36.10;;
59062;SDS011;44851;45.648;9.004;2022-10-16T09:56:36;62.17;;;35.87;;
59062;SDS011;44851;45.648;9.004;2022-10-16T09:59:25;56.40;;;34.63;;
59062;SDS011;44851;45.648;9.004;2022-10-16T10:01:52;67.80;;;36.63;;
59062;SDS011;44851;45.648;9.004;2022-10-16T10:04:18;64.63;;;37.23;;
59062;SDS011;44851;45.648;9.004;2022-10-16T10:11:57;64.93;;;36.10;;
59062;SDS011;44851;45.648;9.004;2022-10-16T10:16:50;57.63;;;35.67;;
59062;SDS011;44851;45.648;9.004;2022-10-16T10:19:21;72.00;;;37.40;;
59062;SDS011;44851;45.648;9.004;2022-10-16T10:21:49;61.60;;;34.70;;
59062;SDS011;44851;45.648;9.004;2022-10-16T10:24:16;63.93;;;37.77;;
59062;SDS011;44851;45.648;9.004;2022-10-16T10:32:52;58.20;;;35.53;;
59062;SDS011;44851;45.648;9.004;2022-10-16T10:35:22;61.27;;;35.10;;
59062;SDS011;44851;45.648;9.004;2022-10-16T10:40:39;65.30;;;36.40;;
59062;SDS011;44851;45.648;9.004;2022-10-16T10:45:48;61.23;;;35.47;;
59062;SDS011;44851;45.648;9.004;2022-10-16T10:48:23;65.80;;;37.03;;
59062;SDS011;44851;45.648;9.004;2022-10-16T10:51:06;64.57;;;38.57;;
59062;SDS011;44851;45.648;9.004;2022-10-16T11:05:23;70.20;;;40.43;;
59062;SDS011;44851;45.648;9.004;2022-10-16T11:07:59;63.37;;;38.17;;
59062;SDS011;44851;45.648;9.004;2022-10-16T11:10:28;72.10;;;40.87;;
59062;SDS011;44851;45.648;9.004;2022-10-16T11:13:14;66.73;;;38.93;;
59062;SDS011;44851;45.648;9.004;2022-10-16T11:15:58;73.70;;;41.13;;
59062;SDS011;44851;45.648;9.004;2022-10-16T11:18:32;66.70;;;41.50;;
59062;SDS011;44851;45.648;9.004;2022-10-16T11:21:07;71.27;;;40.17;;
59062;SDS011;44851;45.648;9.004;2022-10-16T11:23:38;63.87;;;38.87;;
59062;SDS011;44851;45.648;9.004;2022-10-16T11:26:19;68.13;;;38.80;;
59062;SDS011;44851;45.648;9.004;2022-10-16T11:28:49;63.70;;;36.80;;
59062;SDS011;44851;45.648;9.004;2022-10-16T11:34:32;64.23;;;37.43;;
59062;SDS011;44851;45.648;9.004;2022-10-16T11:37:06;64.23;;;37.23;;
59062;SDS011;44851;45.648;9.004;2022-10-16T11:39:36;65.70;;;38.97;;
59062;SDS011;44851;45.648;9.004;2022-10-16T11:42:23;59.00;;;35.97;;
59062;SDS011;44851;45.648;9.004;2022-10-16T11:45:12;60.40;;;36.93;;
59062;SDS011;44851;45.648;9.004;2022-10-16T11:47:42;63.80;;;37.90;;
59062;SDS011;44851;45.648;9.004;2022-10-16T11:50:23;57.30;;;35.47;;
59062;SDS011;44851;45.648;9.004;2022-10-16T11:55:42;55.70;;;34.93;;
59062;SDS011;44851;45.648;9.004;2022-10-16T11:58:15;57.43;;;37.40;;
59062;SDS011;44851;45.648;9.004;2022-10-16T12:00:55;58.03;;;36.50;;
59062;SDS011;44851;45.648;9.004;2022-10-16T12:09:02;55.43;;;36.03;;
59062;SDS011;44851;45.648;9.004;2022-10-16T12:16:37;55.90;;;35.93;;
59062;SDS011;44851;45.648;9.004;2022-10-16T12:21:36;58.17;;;36.33;;
59062;SDS011;44851;45.648;9.004;2022-10-16T12:24:02;55.40;;;36.53;;
59062;SDS011;44851;45.648;9.004;2022-10-16T12:26:32;58.07;;;38.23;;
59062;SDS011;44851;45.648;9.004;2022-10-16T12:31:46;54.97;;;34.87;;
59062;SDS011;44851;45.648;9.004;2022-10-16T12:37:06;54.70;;;36.03;;
59062;SDS011;44851;45.648;9.004;2022-10-16T12:39:35;55.70;;;36.13;;
59062;SDS011;44851;45.648;9.004;2022-10-16T12:42:06;59.53;;;37.43;;
59062;SDS011;44851;45.648;9.004;2022-10-16T12:44:46;52.57;;;34.57;;
59062;SDS011;44851;45.648;9.004;2022-10-16T12:47:22;60.20;;;38.33;;
59062;SDS011;44851;45.648;9.004;2022-10-16T12:50:00;54.47;;;35.03;;
59062;SDS011;44851;45.648;9.004;2022-10-16T12:54:51;56.37;;;37.30;;
59062;SDS011;44851;45.648;9.004;2022-10-16T13:00:13;60.07;;;37.20;;
59062;SDS011;44851;45.648;9.004;2022-10-16T13:21:32;55.33;;;35.63;;
59062;SDS011;44851;45.648;9.004;2022-10-16T13:27:33;56.03;;;34.17;;
59062;SDS011;44851;45.648;9.004;2022-10-16T13:30:19;54.17;;;34.93;;
59062;SDS011;44851;45.648;9.004;2022-10-16T13:32:47;56.07;;;35.37;;
59062;SDS011;44851;45.648;9.004;2022-10-16T13:35:18;52.93;;;34.07;;
59062;SDS011;44851;45.648;9.004;2022-10-16T13:37:49;54.73;;;33.50;;
59062;SDS011;44851;45.648;9.004;2022-10-16T13:40:19;44.77;;;29.73;;
59062;SDS011;44851;45.648;9.004;2022-10-16T13:42:47;50.80;;;32.00;;
59062;SDS011;44851;45.648;9.004;2022-10-16T13:45:24;57.47;;;32.80;;
59062;SDS011;44851;45.648;9.004;2022-10-16T13:48:03;50.37;;;31.00;;
59062;SDS011;44851;45.648;9.004;2022-10-16T13:50:30;48.93;;;33.27;;
59062;SDS011;44851;45.648;9.004;2022-10-16T13:53:05;50.20;;;34.43;;
59062;SDS011;44851;45.648;9.004;2022-10-16T13:55:32;52.80;;;32.83;;
59062;SDS011;44851;45.648;9.004;2022-10-16T13:58:07;52.50;;;32.63;;
59062;SDS011;44851;45.648;9.004;2022-10-16T14:00:34;49.67;;;30.67;;
59062;SDS011;44851;45.648;9.004;2022-10-16T14:03:01;48.47;;;31.43;;
59062;SDS011;44851;45.648;9.004;2022-10-16T14:05:29;47.20;;;29.77;;
59062;SDS011;44851;45.648;9.004;2022-10-16T14:07:55;50.97;;;32.27;;
59062;SDS011;44851;45.648;9.004;2022-10-16T14:10:26;53.50;;;30.63;;
59062;SDS011;44851;45.648;9.004;2022-10-16T14:13:01;45.43;;;30.73;;
59062;SDS011;44851;45.648;9.004;2022-10-16T14:15:30;43.30;;;28.87;;
59062;SDS011;44851;45.648;9.004;2022-10-16T14:17:57;44.87;;;29.63;;
59062;SDS011;44851;45.648;9.004;2022-10-16T14:20:26;46.37;;;28.07;;
59062;SDS011;44851;45.648;9.004;2022-10-16T14:23:37;43.03;;;28.43;;
59062;SDS011;44851;45.648;9.004;2022-10-16T14:25:48;48.47;;;30.63;;
59062;SDS011;44851;45.648;9.004;2022-10-16T14:28:18;53.10;;;31.57;;
59062;SDS011;44851;45.648;9.004;2022-10-16T14:31:17;48.50;;;30.17;;
59062;SDS011;44851;45.648;9.004;2022-10-16T14:34:01;52.37;;;30.97;;
59062;SDS011;44851;45.648;9.004;2022-10-16T14:36:27;48.80;;;31.50;;
59062;SDS011;44851;45.648;9.004;2022-10-16T14:38:58;53.17;;;32.27;;
59062;SDS011;44851;45.648;9.004;2022-10-16T14:41:24;48.87;;;31.43;;
59062;SDS011;44851;45.648;9.004;2022-10-16T14:43:53;46.47;;;28.57;;
59062;SDS011;44851;45.648;9.004;2022-10-16T14:46:31;46.53;;;29.27;;
59062;SDS011;44851;45.648;9.004;2022-10-16T14:51:36;44.60;;;26.70;;
59062;SDS011;44851;45.648;9.004;2022-10-16T14:54:03;44.00;;;28.63;;
59062;SDS011;44851;45.648;9.004;2022-10-16T14:56:29;44.13;;;28.37;;
59062;SDS011;44851;45.648;9.004;2022-10-16T14:58:58;42.47;;;27.27;;
59062;SDS011;44851;45.648;9.004;2022-10-16T15:01:25;45.60;;;29.60;;
59062;SDS011;44851;45.648;9.004;2022-10-16T15:03:50;45.60;;;28.43;;
59062;SDS011;44851;45.648;9.004;2022-10-16T15:06:17;46.93;;;29.07;;
59062;SDS011;44851;45.648;9.004;2022-10-16T15:08:43;46.30;;;29.53;;
59062;SDS011;44851;45.648;9.004;2022-10-16T15:11:15;46.10;;;27.03;;
59062;SDS011;44851;45.648;9.004;2022-10-16T15:13:42;42.63;;;25.63;;
59062;SDS011;44851;45.648;9.004;2022-10-16T15:16:12;41.47;;;26.00;;
59062;SDS011;44851;45.648;9.004;2022-10-16T15:18:38;42.43;;;27.37;;
59062;SDS011;44851;45.648;9.004;2022-10-16T15:21:04;42.37;;;27.37;;
59062;SDS011;44851;45.648;9.004;2022-10-16T15:23:29;42.57;;;26.67;;
59062;SDS011;44851;45.648;9.004;2022-10-16T15:25:55;40.80;;;26.53;;
59062;SDS011;44851;45.648;9.004;2022-10-16T15:28:21;46.23;;;26.53;;
59062;SDS011;44851;45.648;9.004;2022-10-16T15:30:52;41.00;;;26.90;;
59062;SDS011;44851;45.648;9.004;2022-10-16T15:33:19;41.70;;;27.63;;
59062;SDS011;44851;45.648;9.004;2022-10-16T15:35:48;41.40;;;26.70;;
59062;SDS011;44851;45.648;9.004;2022-10-16T15:38:14;46.27;;;28.70;;
59062;SDS011;44851;45.648;9.004;2022-10-16T15:40:41;41.90;;;26.00;;
59062;SDS011;44851;45.648;9.004;2022-10-16T15:43:06;43.17;;;27.60;;
59062;SDS011;44851;45.648;9.004;2022-10-16T15:45:32;41.87;;;26.73;;
59062;SDS011;44851;45.648;9.004;2022-10-16T15:47:59;47.57;;;29.17;;
59062;SDS011;44851;45.648;9.004;2022-10-16T15:50:24;44.17;;;28.67;;
59062;SDS011;44851;45.648;9.004;2022-10-16T15:52:50;44.17;;;28.07;;
59062;SDS011;44851;45.648;9.004;2022-10-16T15:55:16;47.40;;;29.40;;
59062;SDS011;44851;45.648;9.004;2022-10-16T15:57:43;43.40;;;27.80;;
59062;SDS011;44851;45.648;9.004;2022-10-16T16:00:19;45.53;;;27.77;;
59062;SDS011;44851;45.648;9.004;2022-10-16T16:02:49;40.50;;;27.53;;
59062;SDS011;44851;45.648;9.004;2022-10-16T16:05:16;44.33;;;26.90;;
59062;SDS011;44851;45.648;9.004;2022-10-16T16:07:42;41.87;;;25.67;;
59062;SDS011;44851;45.648;9.004;2022-10-16T16:10:08;40.63;;;25.80;;
59062;SDS011;44851;45.648;9.004;2022-10-16T16:12:35;44.90;;;28.07;;
59062;SDS011;44851;45.648;9.004;2022-10-16T16:15:01;43.90;;;26.77;;
59062;SDS011;44851;45.648;9.004;2022-10-16T16:17:27;43.37;;;26.43;;
59062;SDS011;44851;45.648;9.004;2022-10-16T16:19:52;39.57;;;25.13;;
59062;SDS011;44851;45.648;9.004;2022-10-16T16:22:17;42.77;;;27.63;;
59062;SDS011;44851;45.648;9.004;2022-10-16T16:24:43;44.13;;;27.73;;
59062;SDS011;44851;45.648;9.004;2022-10-16T16:27:09;42.10;;;26.67;;
59062;SDS011;44851;45.648;9.004;2022-10-16T16:29:34;45.60;;;27.93;;